createdAt,value
2018-03-24T00:00:26.720Z,0.00
2018-03-24T00:01:26.682Z,0.00
2018-03-24T00:02:26.647Z,0.00
2018-03-24T00:03:26.600Z,0.00
2018-03-24T00:04:26.563Z,0.00
2018-03-24T00:05:26.523Z,0.00
2018-03-24T00:06:26.484Z,0.00
2018-03-24T00:07:26.458Z,0.00
2018-03-24T00:08:26.400Z,0.00
2018-03-24T00:09:26.360Z,0.00
2018-03-24T00:10:26.324Z,0.00
2018-03-24T00:11:26.279Z,0.00
2018-03-24T00:12:26.250Z,0.00
2018-03-24T00:13:26.214Z,0.00
2018-03-24T00:14:26.161Z,0.00
2018-03-24T00:15:26.127Z,0.00
2018-03-24T00:16:26.083Z,0.00
2018-03-24T00:17:26.042Z,0.00
2018-03-24T00:18:25.996Z,0.00
2018-03-24T00:19:25.966Z,0.00
2018-03-24T00:20:25.928Z,0.00
2018-03-24T00:21:25.903Z,0.00
2018-03-24T00:22:25.836Z,0.00
2018-03-24T00:23:25.807Z,0.00
2018-03-24T00:24:25.772Z,0.00
2018-03-24T00:25:25.740Z,0.00
2018-03-24T00:26:25.682Z,0.00
2018-03-24T00:27:25.639Z,0.00
2018-03-24T00:28:25.603Z,0.00
2018-03-24T00:29:25.564Z,0.00
2018-03-24T00:30:25.518Z,0.00
2018-03-24T00:31:25.493Z,0.00
2018-03-24T00:32:25.440Z,0.00
2018-03-24T00:33:25.397Z,0.00
2018-03-24T00:34:25.362Z,0.00
2018-03-24T00:35:25.321Z,0.00
2018-03-24T00:36:25.283Z,0.00
2018-03-24T00:37:25.243Z,0.00
2018-03-24T00:38:25.199Z,0.00
2018-03-24T00:39:25.172Z,0.00
2018-03-24T00:40:25.119Z,0.00
2018-03-24T00:41:25.080Z,0.00
2018-03-24T00:42:25.045Z,0.00
2018-03-24T00:43:25.003Z,0.00
2018-03-24T00:44:24.959Z,0.00
2018-03-24T00:45:24.913Z,0.00
2018-03-24T00:46:24.880Z,0.00
2018-03-24T00:47:24.835Z,0.00
2018-03-24T00:48:24.800Z,0.00
2018-03-24T00:49:24.762Z,0.00
2018-03-24T00:50:24.720Z,0.00
2018-03-24T00:51:24.693Z,0.00
2018-03-24T00:52:24.640Z,0.00
2018-03-24T00:53:24.599Z,0.00
2018-03-24T00:54:24.562Z,0.00
2018-03-24T00:55:24.556Z,0.00
2018-03-24T00:56:24.481Z,0.00
2018-03-24T00:57:24.438Z,0.00
2018-03-24T00:58:24.395Z,0.00
2018-03-24T00:59:24.360Z,0.00
2018-03-24T01:00:24.319Z,0.00
2018-03-24T01:01:24.288Z,0.00
2018-03-24T01:02:24.242Z,0.00
2018-03-24T01:03:24.200Z,0.00
2018-03-24T01:04:24.165Z,0.00
2018-03-24T01:05:24.131Z,0.00
2018-03-24T01:06:24.079Z,0.00
2018-03-24T01:07:24.034Z,0.00
2018-03-24T01:08:24.002Z,0.00
2018-03-24T01:09:23.961Z,0.00
2018-03-24T01:10:23.918Z,0.00
2018-03-24T01:11:23.880Z,0.00
2018-03-24T01:12:23.835Z,0.00
2018-03-24T01:13:23.804Z,0.00
2018-03-24T01:14:23.760Z,0.00
2018-03-24T01:15:23.721Z,0.00
2018-03-24T01:16:23.702Z,0.00
2018-03-24T01:17:23.631Z,0.00
2018-03-24T01:18:23.600Z,0.00
2018-03-24T01:19:23.593Z,0.00
2018-03-24T01:20:23.556Z,0.00
2018-03-24T01:21:23.494Z,0.00
2018-03-24T01:22:23.444Z,0.00
2018-03-24T01:23:23.400Z,0.00
2018-03-24T01:24:23.359Z,0.00
2018-03-24T01:25:23.321Z,0.00
2018-03-24T01:26:23.513Z,0.00
2018-03-24T01:27:23.238Z,0.00
2018-03-24T01:28:23.202Z,0.00
2018-03-24T01:29:23.181Z,0.00
2018-03-24T01:30:23.124Z,0.00
2018-03-24T01:31:23.099Z,0.00
2018-03-24T01:32:23.039Z,0.00
2018-03-24T01:33:22.995Z,0.00
2018-03-24T01:34:22.961Z,0.00
2018-03-24T01:35:22.911Z,0.00
2018-03-24T01:36:22.881Z,0.00
2018-03-24T01:37:22.838Z,0.00
2018-03-24T01:38:22.799Z,0.00
2018-03-24T01:39:22.755Z,0.00
2018-03-24T01:40:22.715Z,0.00
2018-03-24T01:41:22.675Z,0.00
2018-03-24T01:42:22.638Z,0.00
2018-03-24T01:43:22.602Z,0.00
2018-03-24T01:44:22.570Z,0.00
2018-03-24T01:45:22.519Z,0.00
2018-03-24T01:46:22.481Z,0.00
2018-03-24T01:47:22.437Z,0.00
2018-03-24T01:48:22.396Z,0.00
2018-03-24T01:49:22.387Z,0.00
2018-03-24T01:50:22.316Z,0.00
2018-03-24T01:51:22.274Z,0.00
2018-03-24T01:52:22.237Z,0.00
2018-03-24T01:53:22.212Z,0.00
2018-03-24T01:54:22.163Z,0.00
2018-03-24T01:55:22.115Z,0.00
2018-03-24T01:56:22.416Z,0.00
2018-03-24T01:57:22.045Z,0.00
2018-03-24T01:58:21.995Z,0.00
2018-03-24T01:59:21.956Z,0.00
2018-03-24T02:00:21.965Z,0.00
2018-03-24T02:01:21.889Z,0.00
2018-03-24T02:02:21.837Z,0.00
2018-03-24T02:03:21.797Z,0.00
2018-03-24T02:04:21.752Z,0.00
2018-03-24T02:05:21.741Z,0.00
2018-03-24T02:06:21.689Z,0.00
2018-03-24T02:07:21.635Z,0.00
2018-03-24T02:08:21.594Z,0.00
2018-03-24T02:09:21.554Z,0.00
2018-03-24T02:10:21.543Z,0.00
2018-03-24T02:11:21.475Z,0.00
2018-03-24T02:12:21.442Z,0.00
2018-03-24T02:13:21.418Z,0.00
2018-03-24T02:14:21.372Z,0.00
2018-03-24T02:15:21.311Z,0.00
2018-03-24T02:16:21.272Z,0.00
2018-03-24T02:17:21.228Z,0.00
2018-03-24T02:18:21.196Z,0.00
2018-03-24T02:19:21.154Z,0.00
2018-03-24T02:20:21.110Z,0.00
2018-03-24T02:21:21.074Z,0.00
2018-03-24T02:22:21.073Z,0.00
2018-03-24T02:23:20.988Z,0.00
2018-03-24T02:24:20.943Z,0.00
2018-03-24T02:25:20.929Z,0.00
2018-03-24T02:26:20.914Z,0.00
2018-03-24T02:27:20.823Z,0.00
2018-03-24T02:28:20.824Z,0.00
2018-03-24T02:29:20.750Z,0.00
2018-03-24T02:30:20.703Z,0.00
2018-03-24T02:31:20.674Z,0.00
2018-03-24T02:32:20.630Z,0.00
2018-03-24T02:33:20.582Z,0.00
2018-03-24T02:34:20.547Z,0.00
2018-03-24T02:35:20.532Z,0.00
2018-03-24T02:36:20.476Z,0.00
2018-03-24T02:37:20.432Z,0.00
2018-03-24T02:38:20.391Z,0.00
2018-03-24T02:39:20.346Z,0.00
2018-03-24T02:40:20.306Z,0.00
2018-03-24T02:41:20.268Z,0.00
2018-03-24T02:42:20.220Z,0.00
2018-03-24T02:43:20.190Z,0.00
2018-03-24T02:44:20.140Z,0.00
2018-03-24T02:45:20.101Z,0.00
2018-03-24T02:46:20.062Z,0.00
2018-03-24T02:47:20.027Z,0.00
2018-03-24T02:48:19.981Z,0.00
2018-03-24T02:49:19.938Z,0.00
2018-03-24T02:50:19.918Z,0.00
2018-03-24T02:51:19.858Z,0.00
2018-03-24T02:52:19.823Z,0.00
2018-03-24T02:53:20.684Z,0.00
2018-03-24T02:54:20.686Z,0.00
2018-03-24T02:55:19.699Z,0.00
2018-03-24T02:56:19.663Z,0.00
2018-03-24T02:57:19.620Z,0.00
2018-03-24T02:58:19.578Z,0.00
2018-03-24T02:59:19.540Z,0.00
2018-03-24T03:00:19.497Z,0.00
2018-03-24T03:01:19.459Z,0.00
2018-03-24T03:02:19.415Z,0.00
2018-03-24T03:03:19.392Z,0.00
2018-03-24T03:04:19.343Z,0.00
2018-03-24T03:05:19.297Z,0.00
2018-03-24T03:06:19.249Z,0.00
2018-03-24T03:07:19.229Z,0.00
2018-03-24T03:08:19.173Z,0.00
2018-03-24T03:09:19.131Z,0.00
2018-03-24T03:10:20.361Z,0.00
2018-03-24T03:11:19.044Z,0.00
2018-03-24T03:12:19.015Z,0.00
2018-03-24T03:13:18.993Z,0.00
2018-03-24T03:14:18.933Z,0.00
2018-03-24T03:15:19.150Z,0.00
2018-03-24T03:16:18.845Z,0.00
2018-03-24T03:17:18.807Z,0.00
2018-03-24T03:18:18.764Z,0.00
2018-03-24T03:19:18.725Z,0.00
2018-03-24T03:20:18.686Z,0.00
2018-03-24T03:21:18.644Z,0.00
2018-03-24T03:22:18.600Z,0.00
2018-03-24T03:23:18.560Z,0.00
2018-03-24T03:24:18.518Z,0.00
2018-03-24T03:25:18.476Z,0.00
2018-03-24T03:26:18.441Z,0.00
2018-03-24T03:27:18.396Z,0.00
2018-03-24T03:28:18.355Z,0.00
2018-03-24T03:29:18.321Z,0.00
2018-03-24T03:30:18.272Z,0.00
2018-03-24T03:31:18.243Z,0.00
2018-03-24T03:32:18.188Z,0.00
2018-03-24T03:33:18.153Z,0.00
2018-03-24T03:34:18.110Z,0.00
2018-03-24T03:35:18.060Z,0.00
2018-03-24T03:36:18.027Z,0.00
2018-03-24T03:37:17.983Z,0.00
2018-03-24T03:38:17.957Z,0.00
2018-03-24T03:39:17.919Z,0.00
2018-03-24T03:40:17.892Z,0.00
2018-03-24T03:41:17.823Z,0.00
2018-03-24T03:42:17.787Z,0.00
2018-03-24T03:43:17.755Z,0.00
2018-03-24T03:44:17.710Z,0.00
2018-03-24T03:45:17.657Z,0.00
2018-03-24T03:46:17.617Z,0.00
2018-03-24T03:47:17.573Z,0.00
2018-03-24T03:48:17.533Z,0.00
2018-03-24T03:49:17.495Z,0.00
2018-03-24T03:50:17.450Z,0.00
2018-03-24T03:51:17.410Z,0.00
2018-03-24T03:52:17.372Z,0.00
2018-03-24T03:53:17.331Z,0.00
2018-03-24T03:54:17.287Z,0.00
2018-03-24T03:55:17.250Z,0.00
2018-03-24T03:56:17.205Z,0.00
2018-03-24T03:57:17.160Z,0.00
2018-03-24T03:58:17.402Z,0.00
2018-03-24T03:59:17.129Z,0.00
2018-03-24T04:00:17.038Z,0.00
2018-03-24T04:01:17.008Z,0.00
2018-03-24T04:02:16.956Z,0.00
2018-03-24T04:03:16.910Z,0.00
2018-03-24T04:04:16.875Z,0.00
2018-03-24T04:05:16.830Z,0.00
2018-03-24T04:06:16.804Z,0.00
2018-03-24T04:07:16.799Z,0.00
2018-03-24T04:08:16.703Z,0.00
2018-03-24T04:09:16.666Z,0.00
2018-03-24T04:10:16.632Z,0.00
2018-03-24T04:11:16.577Z,0.00
2018-03-24T04:12:16.566Z,0.00
2018-03-24T04:13:16.521Z,0.00
2018-03-24T04:14:16.461Z,0.00
2018-03-24T04:15:16.441Z,0.00
2018-03-24T04:16:16.377Z,0.00
2018-03-24T04:17:16.332Z,0.00
2018-03-24T04:18:16.296Z,0.00
2018-03-24T04:19:16.255Z,0.00
2018-03-24T04:20:16.210Z,0.00
2018-03-24T04:21:16.214Z,0.00
2018-03-24T04:22:16.122Z,0.00
2018-03-24T04:23:16.130Z,0.00
2018-03-24T04:24:16.067Z,0.00
2018-03-24T04:25:15.999Z,0.00
2018-03-24T04:26:15.974Z,0.00
2018-03-24T04:27:15.922Z,0.00
2018-03-24T04:28:15.875Z,0.00
2018-03-24T04:29:15.838Z,0.00
2018-03-24T04:30:15.818Z,0.00
2018-03-24T04:31:15.757Z,0.00
2018-03-24T04:32:15.722Z,0.00
2018-03-24T04:33:15.668Z,0.00
2018-03-24T04:34:15.632Z,0.00
2018-03-24T04:35:15.587Z,0.00
2018-03-24T04:36:15.561Z,0.00
2018-03-24T04:37:15.513Z,0.00
2018-03-24T04:38:15.481Z,0.00
2018-03-24T04:39:15.431Z,0.00
2018-03-24T04:40:15.389Z,0.00
2018-03-24T04:41:15.354Z,0.00
2018-03-24T04:42:15.314Z,0.00
2018-03-24T04:43:15.256Z,0.00
2018-03-24T04:44:15.239Z,0.00
2018-03-24T04:45:15.201Z,0.00
2018-03-24T04:46:15.145Z,0.00
2018-03-24T04:47:15.114Z,0.00
2018-03-24T04:48:15.085Z,0.00
2018-03-24T04:49:15.008Z,0.00
2018-03-24T04:50:14.980Z,0.00
2018-03-24T04:51:14.936Z,0.00
2018-03-24T04:52:14.965Z,0.00
2018-03-24T04:53:14.841Z,0.00
2018-03-24T04:54:14.812Z,0.00
2018-03-24T04:55:14.768Z,0.00
2018-03-24T04:56:14.713Z,0.00
2018-03-24T04:57:14.675Z,0.00
2018-03-24T04:58:14.640Z,0.00
2018-03-24T04:59:14.589Z,0.00
2018-03-24T05:00:14.546Z,0.00
2018-03-24T05:01:14.542Z,0.00
2018-03-24T05:02:14.495Z,0.00
2018-03-24T05:03:14.430Z,0.00
2018-03-24T05:04:14.382Z,0.00
2018-03-24T05:05:14.353Z,0.00
2018-03-24T05:06:14.296Z,0.00
2018-03-24T05:07:14.258Z,0.00
2018-03-24T05:08:14.226Z,0.00
2018-03-24T05:09:14.172Z,0.00
2018-03-24T05:10:14.133Z,0.00
2018-03-24T05:11:14.092Z,0.00
2018-03-24T05:12:14.052Z,0.00
2018-03-24T05:13:14.012Z,0.00
2018-03-24T05:14:13.982Z,0.00
2018-03-24T05:15:13.929Z,0.00
2018-03-24T05:16:13.891Z,0.00
2018-03-24T05:17:13.846Z,0.00
2018-03-24T05:18:13.805Z,0.00
2018-03-24T05:19:13.781Z,0.00
2018-03-24T05:20:13.736Z,0.00
2018-03-24T05:21:13.676Z,0.00
2018-03-24T05:22:13.636Z,0.00
2018-03-24T05:23:13.592Z,0.00
2018-03-24T05:24:13.553Z,0.00
2018-03-24T05:25:13.530Z,0.00
2018-03-24T05:26:13.496Z,5.63
2018-03-24T05:27:13.427Z,5.63
2018-03-24T05:28:13.384Z,5.63
2018-03-24T05:29:13.340Z,5.63
2018-03-24T05:30:13.356Z,5.63
2018-03-24T05:31:13.774Z,5.63
2018-03-24T05:32:13.224Z,5.63
2018-03-24T05:33:13.174Z,5.63
2018-03-24T05:34:13.168Z,5.63
2018-03-24T05:35:13.097Z,5.63
2018-03-24T05:36:13.052Z,5.63
2018-03-24T05:37:13.054Z,5.63
2018-03-24T05:38:13.028Z,5.63
2018-03-24T05:39:12.934Z,5.63
2018-03-24T05:40:12.886Z,11.25
2018-03-24T05:41:12.864Z,11.25
2018-03-24T05:42:12.803Z,11.25
2018-03-24T05:43:12.761Z,11.25
2018-03-24T05:44:12.726Z,11.25
2018-03-24T05:45:12.721Z,11.25
2018-03-24T05:46:12.666Z,11.25
2018-03-24T05:47:12.591Z,11.25
2018-03-24T05:48:12.556Z,11.25
2018-03-24T05:49:12.539Z,11.25
2018-03-24T05:50:12.501Z,16.88
2018-03-24T05:51:12.438Z,16.88
2018-03-24T05:52:12.413Z,16.88
2018-03-24T05:53:12.356Z,16.88
2018-03-24T05:54:12.301Z,16.88
2018-03-24T05:55:12.265Z,16.88
2018-03-24T05:56:12.246Z,16.88
2018-03-24T05:57:12.180Z,16.88
2018-03-24T05:58:12.139Z,16.88
2018-03-24T05:59:12.114Z,16.88
2018-03-24T06:00:12.115Z,16.88
2018-03-24T06:01:12.010Z,16.88
2018-03-24T06:02:11.969Z,16.88
2018-03-24T06:03:11.927Z,16.88
2018-03-24T06:04:11.888Z,22.50
2018-03-24T06:05:11.843Z,22.50
2018-03-24T06:06:11.806Z,22.50
2018-03-24T06:07:11.763Z,22.50
2018-03-24T06:08:11.720Z,22.50
2018-03-24T06:09:11.681Z,28.13
2018-03-24T06:10:11.640Z,28.13
2018-03-24T06:11:11.596Z,33.75
2018-03-24T06:12:11.555Z,33.75
2018-03-24T06:13:11.518Z,33.75
2018-03-24T06:14:11.495Z,33.75
2018-03-24T06:15:11.433Z,39.38
2018-03-24T06:16:11.392Z,39.38
2018-03-24T06:17:11.349Z,45.00
2018-03-24T06:18:11.312Z,45.00
2018-03-24T06:19:11.366Z,45.00
2018-03-24T06:20:11.230Z,45.00
2018-03-24T06:21:11.187Z,50.63
2018-03-24T06:22:11.146Z,50.63
2018-03-24T06:23:11.118Z,50.63
2018-03-24T06:24:11.063Z,50.63
2018-03-24T06:25:11.024Z,56.25
2018-03-24T06:26:10.979Z,56.25
2018-03-24T06:27:10.940Z,56.25
2018-03-24T06:28:10.900Z,56.25
2018-03-24T06:29:10.864Z,56.25
2018-03-24T06:30:10.822Z,56.25
2018-03-24T06:31:10.957Z,56.25
2018-03-24T06:32:10.736Z,56.25
2018-03-24T06:33:10.697Z,56.25
2018-03-24T06:34:10.656Z,61.88
2018-03-24T06:35:10.615Z,61.88
2018-03-24T06:36:10.574Z,61.88
2018-03-24T06:37:10.533Z,67.50
2018-03-24T06:38:10.492Z,67.50
2018-03-24T06:39:10.458Z,73.13
2018-03-24T06:40:10.416Z,67.50
2018-03-24T06:41:10.369Z,73.13
2018-03-24T06:42:10.332Z,73.13
2018-03-24T06:43:10.291Z,73.13
2018-03-24T06:44:10.251Z,78.75
2018-03-24T06:45:10.210Z,78.75
2018-03-24T06:46:11.667Z,78.75
2018-03-24T06:47:10.127Z,84.38
2018-03-24T06:48:10.090Z,84.38
2018-03-24T06:49:10.140Z,90.00
2018-03-24T06:50:10.012Z,95.63
2018-03-24T06:51:09.967Z,101.25
2018-03-24T06:52:09.940Z,106.88
2018-03-24T06:53:09.887Z,118.13
2018-03-24T06:54:09.847Z,123.75
2018-03-24T06:55:09.809Z,129.38
2018-03-24T06:56:09.769Z,135.00
2018-03-24T06:57:09.727Z,140.63
2018-03-24T06:58:09.688Z,146.25
2018-03-24T06:59:09.645Z,151.88
2018-03-24T07:00:09.604Z,157.50
2018-03-24T07:01:09.565Z,202.50
2018-03-24T07:02:09.525Z,219.38
2018-03-24T07:03:09.494Z,225.00
2018-03-24T07:04:09.452Z,230.63
2018-03-24T07:05:09.406Z,230.63
2018-03-24T07:06:09.365Z,236.25
2018-03-24T07:07:09.329Z,236.25
2018-03-24T07:08:09.290Z,230.63
2018-03-24T07:09:09.273Z,225.00
2018-03-24T07:10:09.211Z,202.50
2018-03-24T07:11:09.174Z,196.88
2018-03-24T07:12:09.132Z,191.25
2018-03-24T07:13:09.102Z,191.25
2018-03-24T07:14:10.010Z,191.25
2018-03-24T07:15:09.021Z,196.88
2018-03-24T07:16:08.981Z,202.50
2018-03-24T07:17:08.944Z,208.13
2018-03-24T07:18:08.903Z,213.75
2018-03-24T07:19:08.868Z,219.38
2018-03-24T07:20:08.829Z,219.38
2018-03-24T07:21:08.793Z,219.38
2018-03-24T07:22:08.755Z,225.00
2018-03-24T07:23:08.717Z,230.63
2018-03-24T07:24:08.680Z,236.25
2018-03-24T07:25:08.656Z,241.88
2018-03-24T07:26:08.607Z,247.50
2018-03-24T07:27:08.576Z,253.13
2018-03-24T07:28:08.534Z,258.75
2018-03-24T07:29:08.500Z,264.38
2018-03-24T07:30:08.461Z,270.00
2018-03-24T07:31:08.426Z,281.25
2018-03-24T07:32:08.388Z,286.88
2018-03-24T07:33:08.354Z,286.88
2018-03-24T07:34:08.318Z,281.25
2018-03-24T07:35:08.281Z,292.50
2018-03-24T07:36:08.241Z,298.13
2018-03-24T07:37:08.212Z,303.75
2018-03-24T07:38:08.180Z,309.38
2018-03-24T07:39:08.145Z,315.00
2018-03-24T07:40:08.108Z,320.63
2018-03-24T07:41:08.072Z,331.88
2018-03-24T07:42:08.040Z,331.88
2018-03-24T07:43:08.008Z,343.13
2018-03-24T07:44:07.966Z,348.75
2018-03-24T07:45:07.934Z,348.75
2018-03-24T07:46:07.898Z,354.38
2018-03-24T07:47:07.867Z,354.38
2018-03-24T07:48:07.832Z,360.00
2018-03-24T07:49:07.797Z,365.63
2018-03-24T07:50:07.762Z,365.63
2018-03-24T07:51:07.729Z,371.25
2018-03-24T07:52:07.693Z,382.50
2018-03-24T07:53:07.663Z,382.50
2018-03-24T07:54:07.627Z,388.13
2018-03-24T07:55:07.593Z,393.75
2018-03-24T07:56:07.560Z,393.75
2018-03-24T07:57:07.526Z,399.38
2018-03-24T07:58:07.495Z,399.38
2018-03-24T07:59:07.456Z,410.63
2018-03-24T08:00:07.438Z,416.25
2018-03-24T08:01:07.394Z,416.25
2018-03-24T08:02:07.361Z,421.88
2018-03-24T08:03:07.332Z,433.13
2018-03-24T08:04:07.291Z,438.75
2018-03-24T08:05:07.262Z,444.38
2018-03-24T08:06:07.226Z,427.50
2018-03-24T08:07:07.200Z,427.50
2018-03-24T08:08:07.166Z,438.75
2018-03-24T08:09:07.130Z,444.38
2018-03-24T08:10:07.100Z,433.13
2018-03-24T08:11:07.062Z,427.50
2018-03-24T08:12:07.033Z,427.50
2018-03-24T08:13:07.000Z,433.13
2018-03-24T08:14:06.968Z,427.50
2018-03-24T08:15:06.934Z,438.75
2018-03-24T08:16:06.900Z,444.38
2018-03-24T08:17:06.870Z,483.75
2018-03-24T08:18:06.834Z,489.38
2018-03-24T08:19:06.796Z,545.63
2018-03-24T08:20:06.772Z,590.63
2018-03-24T08:21:06.737Z,635.63
2018-03-24T08:22:06.704Z,759.38
2018-03-24T08:23:06.674Z,1029.38
2018-03-24T08:24:06.637Z,1125.00
2018-03-24T08:25:06.607Z,843.75
2018-03-24T08:26:06.574Z,641.25
2018-03-24T08:27:06.540Z,585.00
2018-03-24T08:28:06.512Z,579.38
2018-03-24T08:29:06.475Z,556.88
2018-03-24T08:30:06.448Z,562.50
2018-03-24T08:31:06.415Z,573.75
2018-03-24T08:32:06.384Z,573.75
2018-03-24T08:33:06.356Z,579.38
2018-03-24T08:34:06.322Z,585.00
2018-03-24T08:35:06.287Z,613.13
2018-03-24T08:36:06.261Z,635.63
2018-03-24T08:37:06.231Z,675.00
2018-03-24T08:38:06.198Z,680.63
2018-03-24T08:39:06.170Z,708.75
2018-03-24T08:40:06.138Z,776.25
2018-03-24T08:41:06.108Z,843.75
2018-03-24T08:42:06.043Z,849.38
2018-03-24T08:43:06.043Z,905.63
2018-03-24T08:44:06.023Z,995.63
2018-03-24T08:45:05.992Z,990.00
2018-03-24T08:46:05.957Z,1080.00
